sensor_id;sensor_type;location;lat;lon;timestamp;P1;durP1;ratioP1;P2;durP2;ratioP2
6023;SDS011;3040;42.654;23.296;2023-07-13T00:01:40;4.07;;;3.87;;
6023;SDS011;3040;42.654;23.296;2023-07-13T00:04:08;4.20;;;3.80;;
6023;SDS011;3040;42.654;23.296;2023-07-13T00:06:34;5.13;;;4.60;;
6023;SDS011;3040;42.654;23.296;2023-07-13T00:09:01;5.07;;;3.73;;
6023;SDS011;3040;42.654;23.296;2023-07-13T00:11:28;4.40;;;4.00;;
6023;SDS011;3040;42.654;23.296;2023-07-13T00:13:57;4.93;;;4.40;;
6023;SDS011;3040;42.654;23.296;2023-07-13T00:16:24;3.93;;;3.80;;
6023;SDS011;3040;42.654;23.296;2023-07-13T00:18:51;5.03;;;4.00;;
6023;SDS011;3040;42.654;23.296;2023-07-13T00:21:18;4.23;;;4.03;;
6023;SDS011;3040;42.654;23.296;2023-07-13T00:23:45;4.83;;;4.37;;
6023;SDS011;3040;42.654;23.296;2023-07-13T00:26:12;4.30;;;4.10;;
6023;SDS011;3040;42.654;23.296;2023-07-13T00:28:39;4.13;;;3.73;;
6023;SDS011;3040;42.654;23.296;2023-07-13T00:31:08;4.77;;;4.10;;
6023;SDS011;3040;42.654;23.296;2023-07-13T00:33:35;4.20;;;3.90;;
6023;SDS011;3040;42.654;23.296;2023-07-13T00:36:02;6.30;;;3.97;;
6023;SDS011;3040;42.654;23.296;2023-07-13T00:38:30;4.03;;;3.67;;
6023;SDS011;3040;42.654;23.296;2023-07-13T00:40:56;4.30;;;3.90;;
6023;SDS011;3040;42.654;23.296;2023-07-13T00:43:25;4.40;;;4.20;;
6023;SDS011;3040;42.654;23.296;2023-07-13T00:48:48;4.20;;;3.80;;
6023;SDS011;3040;42.654;23.296;2023-07-13T00:51:16;5.30;;;4.10;;
6023;SDS011;3040;42.654;23.296;2023-07-13T00:53:47;3.93;;;3.73;;
6023;SDS011;3040;42.654;23.296;2023-07-13T00:56:14;6.03;;;4.27;;
6023;SDS011;3040;42.654;23.296;2023-07-13T00:58:41;4.77;;;4.00;;
6023;SDS011;3040;42.654;23.296;2023-07-13T01:01:08;4.20;;;4.00;;
6023;SDS011;3040;42.654;23.296;2023-07-13T01:03:36;4.80;;;4.30;;
6023;SDS011;3040;42.654;23.296;2023-07-13T01:06:05;4.90;;;4.50;;
6023;SDS011;3040;42.654;23.296;2023-07-13T01:08:32;4.70;;;4.40;;
6023;SDS011;3040;42.654;23.296;2023-07-13T01:10:59;4.10;;;3.90;;
6023;SDS011;3040;42.654;23.296;2023-07-13T01:13:26;6.27;;;4.70;;
6023;SDS011;3040;42.654;23.296;2023-07-13T01:15:53;5.57;;;4.37;;
6023;SDS011;3040;42.654;23.296;2023-07-13T01:18:22;5.30;;;4.57;;
6023;SDS011;3040;42.654;23.296;2023-07-13T01:20:53;5.33;;;4.27;;
6023;SDS011;3040;42.654;23.296;2023-07-13T01:23:21;4.97;;;4.67;;
6023;SDS011;3040;42.654;23.296;2023-07-13T01:25:50;5.07;;;4.60;;
6023;SDS011;3040;42.654;23.296;2023-07-13T01:28:17;4.30;;;4.00;;
6023;SDS011;3040;42.654;23.296;2023-07-13T01:30:44;6.47;;;4.37;;
6023;SDS011;3040;42.654;23.296;2023-07-13T01:33:12;5.57;;;4.20;;
6023;SDS011;3040;42.654;23.296;2023-07-13T01:35:41;5.50;;;4.70;;
6023;SDS011;3040;42.654;23.296;2023-07-13T01:38:10;6.70;;;5.73;;
6023;SDS011;3040;42.654;23.296;2023-07-13T01:40:37;4.80;;;4.47;;
6023;SDS011;3040;42.654;23.296;2023-07-13T01:43:05;5.00;;;4.70;;
6023;SDS011;3040;42.654;23.296;2023-07-13T01:45:32;5.37;;;4.30;;
6023;SDS011;3040;42.654;23.296;2023-07-13T01:47:59;4.73;;;4.43;;
6023;SDS011;3040;42.654;23.296;2023-07-13T01:50:26;4.70;;;4.30;;
6023;SDS011;3040;42.654;23.296;2023-07-13T01:52:54;4.37;;;4.07;;
6023;SDS011;3040;42.654;23.296;2023-07-13T01:55:22;4.87;;;4.47;;
6023;SDS011;3040;42.654;23.296;2023-07-13T01:57:49;4.73;;;4.27;;
6023;SDS011;3040;42.654;23.296;2023-07-13T02:00:16;4.57;;;4.27;;
6023;SDS011;3040;42.654;23.296;2023-07-13T02:02:44;4.60;;;4.20;;
6023;SDS011;3040;42.654;23.296;2023-07-13T02:05:11;4.20;;;4.00;;
6023;SDS011;3040;42.654;23.296;2023-07-13T02:07:38;4.93;;;4.43;;
6023;SDS011;3040;42.654;23.296;2023-07-13T02:10:06;5.00;;;4.60;;
6023;SDS011;3040;42.654;23.296;2023-07-13T02:12:35;5.27;;;4.77;;
6023;SDS011;3040;42.654;23.296;2023-07-13T02:15:02;5.50;;;4.67;;
6023;SDS011;3040;42.654;23.296;2023-07-13T02:17:30;5.37;;;4.90;;
6023;SDS011;3040;42.654;23.296;2023-07-13T02:19:58;5.67;;;5.17;;
6023;SDS011;3040;42.654;23.296;2023-07-13T02:22:24;5.53;;;5.20;;
6023;SDS011;3040;42.654;23.296;2023-07-13T02:24:51;8.87;;;4.63;;
6023;SDS011;3040;42.654;23.296;2023-07-13T02:27:18;6.97;;;5.37;;
6023;SDS011;3040;42.654;23.296;2023-07-13T02:29:46;9.63;;;6.23;;
6023;SDS011;3040;42.654;23.296;2023-07-13T02:32:16;5.33;;;4.93;;
6023;SDS011;3040;42.654;23.296;2023-07-13T02:34:43;5.73;;;5.20;;
6023;SDS011;3040;42.654;23.296;2023-07-13T02:37:10;6.37;;;6.07;;
6023;SDS011;3040;42.654;23.296;2023-07-13T02:39:37;17.33;;;5.50;;
6023;SDS011;3040;42.654;23.296;2023-07-13T02:42:04;6.77;;;4.90;;
6023;SDS011;3040;42.654;23.296;2023-07-13T02:44:31;5.73;;;5.30;;
6023;SDS011;3040;42.654;23.296;2023-07-13T02:46:59;8.20;;;4.70;;
6023;SDS011;3040;42.654;23.296;2023-07-13T02:49:26;8.33;;;5.43;;
6023;SDS011;3040;42.654;23.296;2023-07-13T02:51:53;5.13;;;4.93;;
6023;SDS011;3040;42.654;23.296;2023-07-13T02:54:20;7.60;;;5.53;;
6023;SDS011;3040;42.654;23.296;2023-07-13T02:56:46;5.50;;;5.03;;
6023;SDS011;3040;42.654;23.296;2023-07-13T02:59:13;7.07;;;5.50;;
6023;SDS011;3040;42.654;23.296;2023-07-13T03:01:40;5.57;;;5.07;;
6023;SDS011;3040;42.654;23.296;2023-07-13T03:04:08;11.47;;;5.73;;
6023;SDS011;3040;42.654;23.296;2023-07-13T03:06:35;9.57;;;5.40;;
6023;SDS011;3040;42.654;23.296;2023-07-13T03:09:02;5.93;;;5.47;;
6023;SDS011;3040;42.654;23.296;2023-07-13T03:11:29;9.23;;;5.50;;
6023;SDS011;3040;42.654;23.296;2023-07-13T03:13:57;7.40;;;5.40;;
6023;SDS011;3040;42.654;23.296;2023-07-13T03:16:24;8.13;;;5.77;;
6023;SDS011;3040;42.654;23.296;2023-07-13T03:18:51;8.73;;;5.57;;
6023;SDS011;3040;42.654;23.296;2023-07-13T03:21:19;5.80;;;5.10;;
6023;SDS011;3040;42.654;23.296;2023-07-13T03:23:46;5.67;;;5.17;;
6023;SDS011;3040;42.654;23.296;2023-07-13T03:26:14;10.70;;;6.23;;
6023;SDS011;3040;42.654;23.296;2023-07-13T03:28:44;13.07;;;5.80;;
6023;SDS011;3040;42.654;23.296;2023-07-13T03:31:12;12.00;;;6.00;;
6023;SDS011;3040;42.654;23.296;2023-07-13T03:33:41;6.17;;;5.77;;
6023;SDS011;3040;42.654;23.296;2023-07-13T03:36:12;7.07;;;5.53;;
6023;SDS011;3040;42.654;23.296;2023-07-13T03:38:45;10.30;;;6.10;;
6023;SDS011;3040;42.654;23.296;2023-07-13T03:41:13;13.53;;;7.00;;
6023;SDS011;3040;42.654;23.296;2023-07-13T03:43:41;12.73;;;5.27;;
6023;SDS011;3040;42.654;23.296;2023-07-13T03:46:08;9.60;;;6.57;;
6023;SDS011;3040;42.654;23.296;2023-07-13T03:48:35;6.47;;;5.47;;
6023;SDS011;3040;42.654;23.296;2023-07-13T03:51:02;9.93;;;6.47;;
6023;SDS011;3040;42.654;23.296;2023-07-13T03:53:29;10.90;;;6.10;;
6023;SDS011;3040;42.654;23.296;2023-07-13T03:55:57;13.13;;;6.80;;
6023;SDS011;3040;42.654;23.296;2023-07-13T03:58:28;13.00;;;6.13;;
6023;SDS011;3040;42.654;23.296;2023-07-13T04:00:57;21.83;;;6.60;;
6023;SDS011;3040;42.654;23.296;2023-07-13T04:03:24;7.50;;;6.40;;
6023;SDS011;3040;42.654;23.296;2023-07-13T04:05:52;7.27;;;6.67;;
6023;SDS011;3040;42.654;23.296;2023-07-13T04:08:19;7.10;;;6.47;;
6023;SDS011;3040;42.654;23.296;2023-07-13T04:10:46;7.97;;;7.30;;
6023;SDS011;3040;42.654;23.296;2023-07-13T04:13:14;7.13;;;6.17;;
6023;SDS011;3040;42.654;23.296;2023-07-13T04:15:41;7.90;;;6.77;;
6023;SDS011;3040;42.654;23.296;2023-07-13T04:18:08;7.93;;;7.03;;
6023;SDS011;3040;42.654;23.296;2023-07-13T04:20:35;13.77;;;7.20;;
6023;SDS011;3040;42.654;23.296;2023-07-13T04:23:02;7.87;;;7.17;;
6023;SDS011;3040;42.654;23.296;2023-07-13T04:25:28;15.47;;;7.30;;
6023;SDS011;3040;42.654;23.296;2023-07-13T04:27:55;7.63;;;7.03;;
6023;SDS011;3040;42.654;23.296;2023-07-13T04:30:24;7.63;;;6.60;;
6023;SDS011;3040;42.654;23.296;2023-07-13T04:32:52;6.90;;;6.30;;
6023;SDS011;3040;42.654;23.296;2023-07-13T04:35:19;8.57;;;6.90;;
6023;SDS011;3040;42.654;23.296;2023-07-13T04:37:47;13.60;;;7.67;;
6023;SDS011;3040;42.654;23.296;2023-07-13T04:40:15;23.30;;;8.43;;
6023;SDS011;3040;42.654;23.296;2023-07-13T04:42:42;31.33;;;8.87;;
6023;SDS011;3040;42.654;23.296;2023-07-13T04:45:10;9.87;;;7.33;;
6023;SDS011;3040;42.654;23.296;2023-07-13T04:47:39;16.80;;;9.03;;
6023;SDS011;3040;42.654;23.296;2023-07-13T04:50:07;9.37;;;8.37;;
6023;SDS011;3040;42.654;23.296;2023-07-13T04:52:35;19.87;;;8.63;;
6023;SDS011;3040;42.654;23.296;2023-07-13T04:55:02;9.93;;;8.87;;
6023;SDS011;3040;42.654;23.296;2023-07-13T04:57:29;9.00;;;8.27;;
6023;SDS011;3040;42.654;23.296;2023-07-13T04:59:56;13.23;;;8.37;;
6023;SDS011;3040;42.654;23.296;2023-07-13T05:02:26;11.03;;;8.50;;
6023;SDS011;3040;42.654;23.296;2023-07-13T05:04:54;11.43;;;8.50;;
6023;SDS011;3040;42.654;23.296;2023-07-13T05:07:21;12.50;;;8.63;;
6023;SDS011;3040;42.654;23.296;2023-07-13T05:09:48;9.50;;;8.67;;
6023;SDS011;3040;42.654;23.296;2023-07-13T05:12:15;13.03;;;10.13;;
6023;SDS011;3040;42.654;23.296;2023-07-13T05:14:41;17.17;;;11.43;;
6023;SDS011;3040;42.654;23.296;2023-07-13T05:17:08;12.27;;;10.13;;
6023;SDS011;3040;42.654;23.296;2023-07-13T05:19:35;12.63;;;10.20;;
6023;SDS011;3040;42.654;23.296;2023-07-13T05:22:04;13.57;;;10.57;;
6023;SDS011;3040;42.654;23.296;2023-07-13T05:24:31;46.03;;;12.27;;
6023;SDS011;3040;42.654;23.296;2023-07-13T05:26:57;16.57;;;11.17;;
6023;SDS011;3040;42.654;23.296;2023-07-13T05:29:24;16.20;;;12.27;;
6023;SDS011;3040;42.654;23.296;2023-07-13T05:31:51;17.87;;;11.67;;
6023;SDS011;3040;42.654;23.296;2023-07-13T05:34:18;21.33;;;12.13;;
6023;SDS011;3040;42.654;23.296;2023-07-13T05:36:44;13.87;;;12.03;;
6023;SDS011;3040;42.654;23.296;2023-07-13T05:39:13;16.23;;;11.30;;
6023;SDS011;3040;42.654;23.296;2023-07-13T05:41:39;16.17;;;11.53;;
6023;SDS011;3040;42.654;23.296;2023-07-13T05:44:06;12.57;;;11.40;;
6023;SDS011;3040;42.654;23.296;2023-07-13T05:46:33;14.23;;;11.73;;
6023;SDS011;3040;42.654;23.296;2023-07-13T05:49:00;12.17;;;11.07;;
6023;SDS011;3040;42.654;23.296;2023-07-13T05:51:28;12.80;;;11.27;;
6023;SDS011;3040;42.654;23.296;2023-07-13T05:53:55;11.80;;;10.60;;
6023;SDS011;3040;42.654;23.296;2023-07-13T05:56:23;12.97;;;11.53;;
6023;SDS011;3040;42.654;23.296;2023-07-13T05:58:50;25.83;;;11.67;;
6023;SDS011;3040;42.654;23.296;2023-07-13T06:01:17;15.37;;;12.17;;
6023;SDS011;3040;42.654;23.296;2023-07-13T06:03:45;14.50;;;11.50;;
6023;SDS011;3040;42.654;23.296;2023-07-13T06:06:12;11.03;;;9.47;;
6023;SDS011;3040;42.654;23.296;2023-07-13T06:08:39;18.13;;;9.87;;
6023;SDS011;3040;42.654;23.296;2023-07-13T06:11:06;11.40;;;10.20;;
6023;SDS011;3040;42.654;23.296;2023-07-13T06:13:35;10.20;;;9.30;;
6023;SDS011;3040;42.654;23.296;2023-07-13T06:16:02;15.43;;;9.10;;
6023;SDS011;3040;42.654;23.296;2023-07-13T06:18:30;10.03;;;8.87;;
6023;SDS011;3040;42.654;23.296;2023-07-13T06:20:58;10.57;;;8.10;;
6023;SDS011;3040;42.654;23.296;2023-07-13T06:23:24;10.20;;;7.63;;
6023;SDS011;3040;42.654;23.296;2023-07-13T06:25:52;10.00;;;7.73;;
6023;SDS011;3040;42.654;23.296;2023-07-13T06:28:18;11.90;;;8.37;;
6023;SDS011;3040;42.654;23.296;2023-07-13T06:30:47;10.67;;;8.30;;
6023;SDS011;3040;42.654;23.296;2023-07-13T06:33:13;8.57;;;7.93;;
6023;SDS011;3040;42.654;23.296;2023-07-13T06:35:40;8.67;;;7.87;;
6023;SDS011;3040;42.654;23.296;2023-07-13T06:38:07;10.90;;;7.50;;
6023;SDS011;3040;42.654;23.296;2023-07-13T06:40:34;12.07;;;8.07;;
6023;SDS011;3040;42.654;23.296;2023-07-13T06:43:01;9.90;;;8.63;;
6023;SDS011;3040;42.654;23.296;2023-07-13T06:45:27;11.93;;;9.30;;
6023;SDS011;3040;42.654;23.296;2023-07-13T06:47:56;15.67;;;8.73;;
6023;SDS011;3040;42.654;23.296;2023-07-13T06:50:22;9.80;;;8.87;;
6023;SDS011;3040;42.654;23.296;2023-07-13T06:52:49;9.60;;;8.63;;
6023;SDS011;3040;42.654;23.296;2023-07-13T06:55:16;8.90;;;8.20;;
6023;SDS011;3040;42.654;23.296;2023-07-13T06:57:43;9.10;;;8.30;;
6023;SDS011;3040;42.654;23.296;2023-07-13T07:00:10;9.80;;;8.57;;
6023;SDS011;3040;42.654;23.296;2023-07-13T07:02:37;10.37;;;8.67;;
6023;SDS011;3040;42.654;23.296;2023-07-13T07:05:06;9.70;;;8.70;;
6023;SDS011;3040;42.654;23.296;2023-07-13T07:07:33;12.00;;;9.43;;
6023;SDS011;3040;42.654;23.296;2023-07-13T07:10:00;12.27;;;8.80;;
6023;SDS011;3040;42.654;23.296;2023-07-13T07:12:28;8.63;;;7.70;;
6023;SDS011;3040;42.654;23.296;2023-07-13T07:14:55;9.40;;;8.40;;
6023;SDS011;3040;42.654;23.296;2023-07-13T07:17:22;9.70;;;8.80;;
6023;SDS011;3040;42.654;23.296;2023-07-13T07:19:48;9.47;;;8.67;;
6023;SDS011;3040;42.654;23.296;2023-07-13T07:22:16;10.77;;;9.77;;
6023;SDS011;3040;42.654;23.296;2023-07-13T07:24:43;9.87;;;9.13;;
6023;SDS011;3040;42.654;23.296;2023-07-13T07:27:10;8.87;;;8.10;;
6023;SDS011;3040;42.654;23.296;2023-07-13T07:29:37;8.60;;;7.73;;
6023;SDS011;3040;42.654;23.296;2023-07-13T07:32:04;9.17;;;8.40;;
6023;SDS011;3040;42.654;23.296;2023-07-13T07:34:31;14.93;;;8.47;;
6023;SDS011;3040;42.654;23.296;2023-07-13T07:36:58;14.33;;;9.67;;
6023;SDS011;3040;42.654;23.296;2023-07-13T07:39:27;10.10;;;9.33;;
6023;SDS011;3040;42.654;23.296;2023-07-13T07:41:54;9.27;;;8.40;;
6023;SDS011;3040;42.654;23.296;2023-07-13T07:44:21;11.20;;;7.47;;
6023;SDS011;3040;42.654;23.296;2023-07-13T07:46:48;11.37;;;7.90;;
6023;SDS011;3040;42.654;23.296;2023-07-13T07:49:15;10.93;;;7.57;;
6023;SDS011;3040;42.654;23.296;2023-07-13T07:51:42;8.47;;;7.50;;
6023;SDS011;3040;42.654;23.296;2023-07-13T07:54:09;12.00;;;8.33;;
6023;SDS011;3040;42.654;23.296;2023-07-13T07:56:37;7.87;;;7.27;;
6023;SDS011;3040;42.654;23.296;2023-07-13T07:59:04;7.97;;;7.27;;
6023;SDS011;3040;42.654;23.296;2023-07-13T08:01:30;9.30;;;7.40;;
6023;SDS011;3040;42.654;23.296;2023-07-13T08:03:57;9.73;;;7.97;;
6023;SDS011;3040;42.654;23.296;2023-07-13T08:06:24;12.20;;;7.37;;
6023;SDS011;3040;42.654;23.296;2023-07-13T08:08:51;8.50;;;8.00;;
6023;SDS011;3040;42.654;23.296;2023-07-13T08:11:17;11.53;;;8.10;;
6023;SDS011;3040;42.654;23.296;2023-07-13T08:13:46;14.77;;;8.03;;
6023;SDS011;3040;42.654;23.296;2023-07-13T08:16:12;14.77;;;8.00;;
6023;SDS011;3040;42.654;23.296;2023-07-13T08:18:39;19.67;;;7.57;;
6023;SDS011;3040;42.654;23.296;2023-07-13T08:21:06;11.40;;;7.10;;
6023;SDS011;3040;42.654;23.296;2023-07-13T08:23:34;8.43;;;7.70;;
6023;SDS011;3040;42.654;23.296;2023-07-13T08:26:02;15.93;;;7.83;;
6023;SDS011;3040;42.654;23.296;2023-07-13T08:28:29;7.80;;;7.10;;
6023;SDS011;3040;42.654;23.296;2023-07-13T08:31:01;25.97;;;8.80;;
6023;SDS011;3040;42.654;23.296;2023-07-13T08:33:28;7.90;;;7.13;;
6023;SDS011;3040;42.654;23.296;2023-07-13T08:35:55;8.57;;;7.00;;
6023;SDS011;3040;42.654;23.296;2023-07-13T08:38:22;7.93;;;7.20;;
6023;SDS011;3040;42.654;23.296;2023-07-13T08:40:50;22.43;;;7.97;;
6023;SDS011;3040;42.654;23.296;2023-07-13T08:43:22;7.73;;;6.97;;
6023;SDS011;3040;42.654;23.296;2023-07-13T08:45:53;8.93;;;6.97;;
6023;SDS011;3040;42.654;23.296;2023-07-13T08:48:28;10.33;;;7.57;;
6023;SDS011;3040;42.654;23.296;2023-07-13T08:51:02;11.37;;;7.13;;
6023;SDS011;3040;42.654;23.296;2023-07-13T08:53:38;11.73;;;7.67;;
6023;SDS011;3040;42.654;23.296;2023-07-13T08:56:09;7.20;;;6.53;;
6023;SDS011;3040;42.654;23.296;2023-07-13T08:58:42;7.27;;;6.60;;
6023;SDS011;3040;42.654;23.296;2023-07-13T09:01:12;17.17;;;7.43;;
6023;SDS011;3040;42.654;23.296;2023-07-13T09:03:49;12.57;;;6.90;;
6023;SDS011;3040;42.654;23.296;2023-07-13T09:06:26;10.43;;;6.90;;
6023;SDS011;3040;42.654;23.296;2023-07-13T09:08:58;11.17;;;7.00;;
6023;SDS011;3040;42.654;23.296;2023-07-13T09:11:42;8.80;;;6.93;;
6023;SDS011;3040;42.654;23.296;2023-07-13T09:14:24;8.33;;;7.27;;
6023;SDS011;3040;42.654;23.296;2023-07-13T09:17:00;13.93;;;6.70;;
6023;SDS011;3040;42.654;23.296;2023-07-13T09:19:32;8.55;;;6.70;;
6023;SDS011;3040;42.654;23.296;2023-07-13T09:22:01;7.10;;;6.70;;
6023;SDS011;3040;42.654;23.296;2023-07-13T09:24:35;10.53;;;7.30;;
6023;SDS011;3040;42.654;23.296;2023-07-13T09:27:05;7.57;;;6.90;;
6023;SDS011;3040;42.654;23.296;2023-07-13T09:29:40;10.90;;;6.57;;
6023;SDS011;3040;42.654;23.296;2023-07-13T09:32:12;8.30;;;7.47;;
6023;SDS011;3040;42.654;23.296;2023-07-13T09:34:45;8.90;;;8.20;;
6023;SDS011;3040;42.654;23.296;2023-07-13T09:37:16;10.17;;;7.70;;
6023;SDS011;3040;42.654;23.296;2023-07-13T09:39:44;12.37;;;7.03;;
6023;SDS011;3040;42.654;23.296;2023-07-13T09:42:12;10.13;;;7.47;;
6023;SDS011;3040;42.654;23.296;2023-07-13T09:44:50;8.77;;;7.73;;
6023;SDS011;3040;42.654;23.296;2023-07-13T09:47:20;12.07;;;7.67;;
6023;SDS011;3040;42.654;23.296;2023-07-13T09:49:53;7.90;;;7.27;;
6023;SDS011;3040;42.654;23.296;2023-07-13T09:52:21;8.13;;;7.28;;
6023;SDS011;3040;42.654;23.296;2023-07-13T09:54:50;9.32;;;7.65;;
6023;SDS011;3040;42.654;23.296;2023-07-13T09:57:22;11.77;;;7.88;;
6023;SDS011;3040;42.654;23.296;2023-07-13T09:59:51;8.50;;;7.80;;
6023;SDS011;3040;42.654;23.296;2023-07-13T10:02:25;8.75;;;8.05;;
6023;SDS011;3040;42.654;23.296;2023-07-13T10:04:59;9.98;;;8.57;;
6023;SDS011;3040;42.654;23.296;2023-07-13T10:07:28;19.05;;;7.88;;
6023;SDS011;3040;42.654;23.296;2023-07-13T10:09:56;9.07;;;6.15;;
6023;SDS011;3040;42.654;23.296;2023-07-13T10:12:26;7.97;;;7.25;;
6023;SDS011;3040;42.654;23.296;2023-07-13T10:14:54;9.60;;;8.57;;
6023;SDS011;3040;42.654;23.296;2023-07-13T10:17:25;12.75;;;8.48;;
6023;SDS011;3040;42.654;23.296;2023-07-13T10:19:59;7.63;;;6.90;;
6023;SDS011;3040;42.654;23.296;2023-07-13T10:22:33;5.25;;;4.90;;
6023;SDS011;3040;42.654;23.296;2023-07-13T10:25:13;5.18;;;4.60;;
6023;SDS011;3040;42.654;23.296;2023-07-13T10:27:43;6.18;;;4.68;;
6023;SDS011;3040;42.654;23.296;2023-07-13T10:30:12;12.80;;;4.75;;
6023;SDS011;3040;42.654;23.296;2023-07-13T10:32:44;4.38;;;4.13;;
6023;SDS011;3040;42.654;23.296;2023-07-13T10:35:14;5.57;;;4.50;;
6023;SDS011;3040;42.654;23.296;2023-07-13T10:37:45;5.87;;;5.37;;
6023;SDS011;3040;42.654;23.296;2023-07-13T10:40:18;4.93;;;4.50;;
6023;SDS011;3040;42.654;23.296;2023-07-13T10:42:50;4.73;;;4.17;;
6023;SDS011;3040;42.654;23.296;2023-07-13T10:45:21;7.27;;;5.00;;
6023;SDS011;3040;42.654;23.296;2023-07-13T10:47:50;6.33;;;4.60;;
6023;SDS011;3040;42.654;23.296;2023-07-13T10:50:24;13.60;;;4.93;;
6023;SDS011;3040;42.654;23.296;2023-07-13T10:52:52;4.80;;;4.27;;
6023;SDS011;3040;42.654;23.296;2023-07-13T10:55:31;6.47;;;5.00;;
6023;SDS011;3040;42.654;23.296;2023-07-13T10:58:03;13.00;;;4.53;;
6023;SDS011;3040;42.654;23.296;2023-07-13T11:00:43;9.68;;;5.28;;
6023;SDS011;3040;42.654;23.296;2023-07-13T11:03:14;5.50;;;5.00;;
6023;SDS011;3040;42.654;23.296;2023-07-13T11:05:45;10.07;;;4.57;;
6023;SDS011;3040;42.654;23.296;2023-07-13T11:08:18;5.73;;;5.23;;
6023;SDS011;3040;42.654;23.296;2023-07-13T11:10:51;6.68;;;5.22;;
6023;SDS011;3040;42.654;23.296;2023-07-13T11:13:36;6.38;;;4.95;;
6023;SDS011;3040;42.654;23.296;2023-07-13T11:16:26;5.07;;;4.57;;
6023;SDS011;3040;42.654;23.296;2023-07-13T11:22:09;10.52;;;4.68;;
6023;SDS011;3040;42.654;23.296;2023-07-13T11:24:50;7.70;;;4.32;;
6023;SDS011;3040;42.654;23.296;2023-07-13T11:27:22;9.10;;;5.10;;
6023;SDS011;3040;42.654;23.296;2023-07-13T11:33:04;6.15;;;5.78;;
6023;SDS011;3040;42.654;23.296;2023-07-13T11:35:49;6.20;;;4.93;;
6023;SDS011;3040;42.654;23.296;2023-07-13T11:38:22;6.43;;;5.07;;
6023;SDS011;3040;42.654;23.296;2023-07-13T11:40:54;12.75;;;5.20;;
6023;SDS011;3040;42.654;23.296;2023-07-13T11:43:24;9.73;;;4.40;;
6023;SDS011;3040;42.654;23.296;2023-07-13T11:45:51;5.18;;;4.70;;
6023;SDS011;3040;42.654;23.296;2023-07-13T11:48:18;10.55;;;4.72;;
6023;SDS011;3040;42.654;23.296;2023-07-13T11:50:55;8.80;;;4.70;;
6023;SDS011;3040;42.654;23.296;2023-07-13T11:53:27;5.23;;;4.93;;
6023;SDS011;3040;42.654;23.296;2023-07-13T11:56:05;5.03;;;4.73;;
6023;SDS011;3040;42.654;23.296;2023-07-13T11:58:33;5.37;;;4.90;;
6023;SDS011;3040;42.654;23.296;2023-07-13T12:01:00;7.10;;;5.13;;
6023;SDS011;3040;42.654;23.296;2023-07-13T12:03:29;5.57;;;4.50;;
6023;SDS011;3040;42.654;23.296;2023-07-13T12:05:59;5.57;;;4.90;;
6023;SDS011;3040;42.654;23.296;2023-07-13T12:08:29;9.43;;;4.72;;
6023;SDS011;3040;42.654;23.296;2023-07-13T12:10:56;8.20;;;4.60;;
6023;SDS011;3040;42.654;23.296;2023-07-13T12:13:26;7.05;;;4.43;;
6023;SDS011;3040;42.654;23.296;2023-07-13T12:15:54;5.68;;;5.15;;
6023;SDS011;3040;42.654;23.296;2023-07-13T12:18:23;6.63;;;5.53;;
6023;SDS011;3040;42.654;23.296;2023-07-13T12:20:55;9.25;;;5.80;;
6023;SDS011;3040;42.654;23.296;2023-07-13T12:23:25;10.60;;;5.13;;
6023;SDS011;3040;42.654;23.296;2023-07-13T12:25:57;7.30;;;5.43;;
6023;SDS011;3040;42.654;23.296;2023-07-13T12:28:30;7.88;;;5.68;;
6023;SDS011;3040;42.654;23.296;2023-07-13T12:30:59;14.45;;;6.55;;
6023;SDS011;3040;42.654;23.296;2023-07-13T12:33:28;8.85;;;6.63;;
6023;SDS011;3040;42.654;23.296;2023-07-13T12:35:57;7.70;;;6.68;;
6023;SDS011;3040;42.654;23.296;2023-07-13T12:38:28;6.97;;;5.72;;
6023;SDS011;3040;42.654;23.296;2023-07-13T12:40:56;10.10;;;6.43;;
6023;SDS011;3040;42.654;23.296;2023-07-13T12:43:23;10.15;;;6.20;;
6023;SDS011;3040;42.654;23.296;2023-07-13T12:45:56;6.82;;;6.15;;
6023;SDS011;3040;42.654;23.296;2023-07-13T12:48:23;10.30;;;6.07;;
6023;SDS011;3040;42.654;23.296;2023-07-13T12:50:51;8.07;;;6.45;;
6023;SDS011;3040;42.654;23.296;2023-07-13T12:53:20;10.20;;;6.60;;
6023;SDS011;3040;42.654;23.296;2023-07-13T12:55:52;6.47;;;5.60;;
6023;SDS011;3040;42.654;23.296;2023-07-13T12:58:22;11.27;;;6.05;;
6023;SDS011;3040;42.654;23.296;2023-07-13T13:00:53;7.38;;;5.95;;
6023;SDS011;3040;42.654;23.296;2023-07-13T13:03:24;10.98;;;6.22;;
6023;SDS011;3040;42.654;23.296;2023-07-13T13:06:00;6.20;;;5.65;;
6023;SDS011;3040;42.654;23.296;2023-07-13T13:08:30;6.50;;;6.10;;
6023;SDS011;3040;42.654;23.296;2023-07-13T13:10:58;10.60;;;6.32;;
6023;SDS011;3040;42.654;23.296;2023-07-13T13:13:25;7.03;;;6.18;;
6023;SDS011;3040;42.654;23.296;2023-07-13T13:15:52;11.88;;;6.38;;
6023;SDS011;3040;42.654;23.296;2023-07-13T13:18:20;7.60;;;6.00;;
6023;SDS011;3040;42.654;23.296;2023-07-13T13:20:48;7.38;;;5.40;;
6023;SDS011;3040;42.654;23.296;2023-07-13T13:23:17;8.48;;;6.05;;
6023;SDS011;3040;42.654;23.296;2023-07-13T13:25:46;7.10;;;6.18;;
6023;SDS011;3040;42.654;23.296;2023-07-13T13:28:16;7.28;;;6.55;;
6023;SDS011;3040;42.654;23.296;2023-07-13T13:30:44;8.05;;;6.30;;
6023;SDS011;3040;42.654;23.296;2023-07-13T13:33:13;8.82;;;5.28;;
6023;SDS011;3040;42.654;23.296;2023-07-13T13:35:41;9.65;;;5.13;;
6023;SDS011;3040;42.654;23.296;2023-07-13T13:38:09;8.90;;;5.82;;
6023;SDS011;3040;42.654;23.296;2023-07-13T13:40:39;10.35;;;6.53;;
6023;SDS011;3040;42.654;23.296;2023-07-13T13:43:14;12.02;;;7.13;;
6023;SDS011;3040;42.654;23.296;2023-07-13T13:45:42;11.85;;;5.70;;
6023;SDS011;3040;42.654;23.296;2023-07-13T13:48:13;8.90;;;4.70;;
6023;SDS011;3040;42.654;23.296;2023-07-13T13:50:42;17.92;;;5.43;;
6023;SDS011;3040;42.654;23.296;2023-07-13T13:53:10;6.80;;;4.85;;
6023;SDS011;3040;42.654;23.296;2023-07-13T13:55:38;6.90;;;4.63;;
6023;SDS011;3040;42.654;23.296;2023-07-13T13:58:07;9.18;;;4.78;;
6023;SDS011;3040;42.654;23.296;2023-07-13T14:00:36;9.07;;;4.72;;
6023;SDS011;3040;42.654;23.296;2023-07-13T14:03:03;6.63;;;4.70;;
6023;SDS011;3040;42.654;23.296;2023-07-13T14:05:32;9.02;;;4.55;;
6023;SDS011;3040;42.654;23.296;2023-07-13T14:07:59;13.30;;;4.90;;
6023;SDS011;3040;42.654;23.296;2023-07-13T14:10:26;10.18;;;4.50;;
6023;SDS011;3040;42.654;23.296;2023-07-13T14:12:53;7.97;;;4.93;;
6023;SDS011;3040;42.654;23.296;2023-07-13T14:15:23;4.43;;;4.03;;
6023;SDS011;3040;42.654;23.296;2023-07-13T14:17:53;8.02;;;5.10;;
6023;SDS011;3040;42.654;23.296;2023-07-13T14:20:21;7.80;;;4.80;;
6023;SDS011;3040;42.654;23.296;2023-07-13T14:22:49;13.40;;;4.50;;
6023;SDS011;3040;42.654;23.296;2023-07-13T14:25:17;13.70;;;5.32;;
6023;SDS011;3040;42.654;23.296;2023-07-13T14:27:46;6.00;;;4.72;;
6023;SDS011;3040;42.654;23.296;2023-07-13T14:30:16;5.70;;;4.60;;
6023;SDS011;3040;42.654;23.296;2023-07-13T14:32:45;11.35;;;5.18;;
6023;SDS011;3040;42.654;23.296;2023-07-13T14:35:16;12.38;;;5.22;;
6023;SDS011;3040;42.654;23.296;2023-07-13T14:37:45;15.80;;;4.60;;
6023;SDS011;3040;42.654;23.296;2023-07-13T14:40:13;9.05;;;5.05;;
6023;SDS011;3040;42.654;23.296;2023-07-13T14:42:41;8.55;;;5.30;;
6023;SDS011;3040;42.654;23.296;2023-07-13T14:45:12;8.60;;;4.80;;
6023;SDS011;3040;42.654;23.296;2023-07-13T14:47:40;6.40;;;4.97;;
6023;SDS011;3040;42.654;23.296;2023-07-13T14:50:11;6.13;;;4.97;;
6023;SDS011;3040;42.654;23.296;2023-07-13T14:52:42;5.57;;;4.63;;
6023;SDS011;3040;42.654;23.296;2023-07-13T14:55:10;7.50;;;5.50;;
6023;SDS011;3040;42.654;23.296;2023-07-13T14:57:38;7.28;;;4.72;;
6023;SDS011;3040;42.654;23.296;2023-07-13T15:00:05;8.60;;;4.75;;
6023;SDS011;3040;42.654;23.296;2023-07-13T15:02:39;11.52;;;4.95;;
6023;SDS011;3040;42.654;23.296;2023-07-13T15:05:11;5.45;;;4.55;;
6023;SDS011;3040;42.654;23.296;2023-07-13T15:07:40;10.32;;;5.25;;
6023;SDS011;3040;42.654;23.296;2023-07-13T15:10:15;6.53;;;4.47;;
6023;SDS011;3040;42.654;23.296;2023-07-13T15:12:43;12.70;;;4.90;;
6023;SDS011;3040;42.654;23.296;2023-07-13T15:15:10;4.57;;;4.28;;